createdAt,value
2022-08-17T04:00:29.065Z,0.00
2022-08-17T04:01:29.078Z,0.00
2022-08-17T04:02:29.020Z,0.00
2022-08-17T04:03:28.999Z,0.00
2022-08-17T04:04:28.993Z,0.00
2022-08-17T04:05:28.977Z,0.00
2022-08-17T04:06:28.965Z,0.00
2022-08-17T04:07:28.971Z,0.00
2022-08-17T04:08:28.944Z,0.00
2022-08-17T04:09:28.936Z,0.00
2022-08-17T04:10:28.921Z,0.00
2022-08-17T04:11:33.934Z,0.00
2022-08-17T04:12:28.908Z,0.00
2022-08-17T04:13:28.895Z,0.00
2022-08-17T04:14:28.882Z,0.00
2022-08-17T04:15:28.869Z,0.00
2022-08-17T04:16:28.855Z,0.00
2022-08-17T04:17:28.860Z,0.00
2022-08-17T04:18:28.833Z,0.00
2022-08-17T04:19:28.823Z,0.00
2022-08-17T04:20:28.812Z,0.00
2022-08-17T04:21:28.800Z,0.00
2022-08-17T04:22:34.448Z,0.00
2022-08-17T04:23:28.787Z,0.00
2022-08-17T04:24:28.766Z,0.00
2022-08-17T04:25:28.755Z,0.00
2022-08-17T04:26:52.981Z,0.00
2022-08-17T04:27:29.743Z,0.00
2022-08-17T04:28:28.721Z,0.00
2022-08-17T04:29:28.714Z,0.00
2022-08-17T04:30:29.705Z,0.00
2022-08-17T04:31:28.690Z,0.00
2022-08-17T04:33:03.665Z,0.00
2022-08-17T04:33:34.694Z,0.00
2022-08-17T04:34:28.660Z,0.00
2022-08-17T04:35:28.646Z,5.62
2022-08-17T04:36:28.639Z,5.62
2022-08-17T04:37:28.638Z,5.62
2022-08-17T04:38:28.611Z,5.62
2022-08-17T04:39:28.635Z,5.62
2022-08-17T04:40:28.589Z,5.62
2022-08-17T04:41:28.581Z,5.62
2022-08-17T04:42:28.567Z,5.62
2022-08-17T04:43:28.568Z,5.62
2022-08-17T04:44:37.648Z,11.25
2022-08-17T04:45:32.321Z,11.25
2022-08-17T04:46:28.522Z,11.25
2022-08-17T04:47:28.515Z,11.25
2022-08-17T04:48:35.695Z,11.25
2022-08-17T04:49:29.531Z,11.25
2022-08-17T04:50:28.479Z,11.25
2022-08-17T04:51:28.469Z,11.25
2022-08-17T04:52:29.875Z,11.25
2022-08-17T04:53:29.463Z,11.25
2022-08-17T04:54:28.438Z,11.25
2022-08-17T04:55:33.447Z,11.25
2022-08-17T04:56:28.418Z,11.25
2022-08-17T04:57:28.403Z,11.25
2022-08-17T04:58:28.403Z,11.25
2022-08-17T04:59:28.378Z,11.25
2022-08-17T05:00:28.369Z,16.88
2022-08-17T05:01:28.475Z,16.88
2022-08-17T05:02:28.362Z,16.88
2022-08-17T05:03:28.335Z,16.88
2022-08-17T05:04:34.396Z,22.50
2022-08-17T05:05:29.316Z,22.50
2022-08-17T05:06:33.324Z,22.50
2022-08-17T05:07:31.413Z,22.50
2022-08-17T05:08:28.280Z,22.50
2022-08-17T05:09:28.268Z,22.50
2022-08-17T05:10:28.259Z,22.50
2022-08-17T05:11:28.249Z,16.88
2022-08-17T05:12:28.247Z,16.88
2022-08-17T05:13:28.224Z,16.88
2022-08-17T05:14:32.835Z,16.88
2022-08-17T05:15:29.202Z,16.88
2022-08-17T05:16:28.191Z,16.88
2022-08-17T05:17:33.225Z,16.88
2022-08-17T05:18:28.170Z,16.88
2022-08-17T05:19:28.157Z,22.50
2022-08-17T05:20:28.153Z,22.50
2022-08-17T05:21:28.136Z,16.88
2022-08-17T05:22:28.126Z,16.88
2022-08-17T05:23:35.553Z,16.88
2022-08-17T05:24:38.330Z,16.88
2022-08-17T05:25:29.094Z,16.88
2022-08-17T05:26:28.791Z,16.88
2022-08-17T05:27:32.232Z,16.88
2022-08-17T05:28:34.095Z,22.50
2022-08-17T05:29:35.213Z,22.50
2022-08-17T05:30:29.037Z,22.50
2022-08-17T05:31:28.023Z,28.12
2022-08-17T05:32:37.951Z,28.12
2022-08-17T05:33:29.013Z,28.12
2022-08-17T05:34:27.993Z,28.12
2022-08-17T05:35:27.981Z,28.12
2022-08-17T05:36:41.984Z,33.75
2022-08-17T05:37:28.966Z,33.75
2022-08-17T05:38:27.958Z,39.38
2022-08-17T05:39:32.991Z,39.38
2022-08-17T05:40:27.926Z,45.00
2022-08-17T05:41:28.914Z,50.62
2022-08-17T05:42:27.904Z,56.25
2022-08-17T05:43:27.902Z,56.25
2022-08-17T05:44:27.896Z,56.25
2022-08-17T05:45:54.257Z,50.62
2022-08-17T05:46:28.860Z,50.62
2022-08-17T05:47:27.848Z,50.62
2022-08-17T05:48:35.677Z,50.62
2022-08-17T05:49:28.825Z,61.88
2022-08-17T05:50:32.837Z,50.62
2022-08-17T05:51:27.814Z,39.38
2022-08-17T05:52:27.793Z,33.75
2022-08-17T05:53:27.795Z,39.38
2022-08-17T05:54:27.819Z,39.38
2022-08-17T05:55:27.769Z,33.75
2022-08-17T05:56:30.419Z,33.75
2022-08-17T05:57:27.766Z,33.75
2022-08-17T05:58:27.735Z,33.75
2022-08-17T05:59:27.723Z,33.75
2022-08-17T06:00:30.694Z,39.38
2022-08-17T06:01:32.772Z,33.75
2022-08-17T06:02:27.694Z,33.75
2022-08-17T06:03:27.829Z,28.12
2022-08-17T06:04:27.666Z,28.12
2022-08-17T06:05:27.661Z,28.12
2022-08-17T06:06:31.196Z,28.12
2022-08-17T06:07:27.628Z,28.12
2022-08-17T06:08:27.690Z,33.75
2022-08-17T06:09:33.008Z,33.75
2022-08-17T06:10:28.670Z,39.38
2022-08-17T06:11:27.590Z,50.62
2022-08-17T06:12:32.600Z,56.25
2022-08-17T06:13:27.571Z,61.88
2022-08-17T06:14:27.552Z,61.88
2022-08-17T06:15:27.538Z,61.88
2022-08-17T06:16:34.091Z,67.50
2022-08-17T06:17:28.514Z,67.50
2022-08-17T06:18:27.527Z,73.12
2022-08-17T06:19:27.500Z,73.12
2022-08-17T06:20:27.575Z,67.50
2022-08-17T06:21:31.952Z,73.12
2022-08-17T06:22:27.480Z,84.38
2022-08-17T06:23:32.555Z,101.25
2022-08-17T06:24:27.477Z,112.50
2022-08-17T06:25:27.426Z,118.12
2022-08-17T06:26:27.584Z,61.88
2022-08-17T06:27:28.403Z,84.38
2022-08-17T06:28:27.422Z,50.62
2022-08-17T06:29:27.390Z,45.00
2022-08-17T06:30:27.498Z,39.38
2022-08-17T06:31:27.375Z,33.75
2022-08-17T06:32:27.350Z,33.75
2022-08-17T06:33:27.340Z,39.38
2022-08-17T06:34:32.360Z,33.75
2022-08-17T06:35:32.090Z,33.75
2022-08-17T06:36:28.313Z,33.75
2022-08-17T06:37:27.295Z,33.75
2022-08-17T06:38:36.965Z,28.12
2022-08-17T06:39:31.268Z,28.12
2022-08-17T06:40:27.328Z,28.12
2022-08-17T06:41:27.248Z,28.12
2022-08-17T06:43:02.927Z,28.12
2022-08-17T06:43:28.226Z,28.12
2022-08-17T06:44:49.804Z,28.12
2022-08-17T06:45:33.457Z,28.12
2022-08-17T06:46:27.212Z,28.12
2022-08-17T06:47:28.495Z,28.12
2022-08-17T06:48:27.176Z,33.75
2022-08-17T06:49:27.170Z,33.75
2022-08-17T06:50:27.287Z,33.75
2022-08-17T06:51:27.147Z,39.38
2022-08-17T06:52:46.007Z,39.38
2022-08-17T06:53:28.117Z,45.00
2022-08-17T06:54:27.116Z,45.00
2022-08-17T06:55:27.100Z,39.38
2022-08-17T06:56:53.263Z,39.38
2022-08-17T06:57:28.071Z,39.38
2022-08-17T06:58:29.822Z,39.38
2022-08-17T06:59:54.343Z,45.00
2022-08-17T07:00:28.128Z,45.00
2022-08-17T07:01:27.181Z,50.62
2022-08-17T07:02:29.506Z,50.62
2022-08-17T07:03:28.769Z,50.62
2022-08-17T07:04:27.430Z,50.62
2022-08-17T07:05:27.236Z,50.62
2022-08-17T07:06:27.248Z,45.00
2022-08-17T07:07:32.120Z,45.00
2022-08-17T07:08:30.576Z,39.38
2022-08-17T07:09:27.946Z,33.75
2022-08-17T07:10:26.935Z,33.75
2022-08-17T07:11:26.916Z,28.12
2022-08-17T07:12:26.907Z,28.12
2022-08-17T07:13:26.896Z,28.12
2022-08-17T07:14:26.894Z,28.12
2022-08-17T07:15:26.871Z,28.12
2022-08-17T07:16:26.863Z,28.12
2022-08-17T07:17:46.508Z,28.12
2022-08-17T07:18:32.861Z,28.12
2022-08-17T07:19:26.841Z,28.12
2022-08-17T07:20:26.817Z,28.12
2022-08-17T07:21:26.937Z,28.12
2022-08-17T07:22:26.794Z,33.75
2022-08-17T07:23:26.784Z,33.75
2022-08-17T07:24:30.109Z,39.38
2022-08-17T07:25:26.777Z,39.38
2022-08-17T07:26:26.749Z,45.00
2022-08-17T07:27:26.737Z,50.62
2022-08-17T07:28:26.731Z,61.88
2022-08-17T07:29:31.747Z,73.12
2022-08-17T07:30:26.711Z,78.75
2022-08-17T07:31:26.709Z,78.75
2022-08-17T07:32:26.682Z,73.12
2022-08-17T07:33:26.671Z,67.50
2022-08-17T07:34:26.693Z,67.50
2022-08-17T07:35:26.648Z,67.50
2022-08-17T07:36:30.126Z,61.88
2022-08-17T07:37:26.627Z,61.88
2022-08-17T07:38:27.142Z,61.88
2022-08-17T07:39:26.631Z,61.88
2022-08-17T07:40:31.689Z,56.25
2022-08-17T07:41:26.593Z,56.25
2022-08-17T07:42:27.572Z,50.62
2022-08-17T07:43:26.565Z,45.00
2022-08-17T07:44:26.561Z,45.00
2022-08-17T07:45:26.564Z,45.00
2022-08-17T07:46:26.526Z,45.00
2022-08-17T07:47:26.523Z,45.00
2022-08-17T07:48:26.506Z,50.62
2022-08-17T07:49:26.506Z,61.88
2022-08-17T07:50:27.621Z,67.50
2022-08-17T07:51:31.505Z,73.12
2022-08-17T07:52:50.986Z,73.12
2022-08-17T07:53:27.452Z,73.12
2022-08-17T07:54:26.447Z,73.12
2022-08-17T07:55:26.427Z,78.75
2022-08-17T07:56:26.416Z,84.38
2022-08-17T07:57:29.993Z,84.38
2022-08-17T07:58:26.402Z,90.00
2022-08-17T07:59:33.220Z,95.62
2022-08-17T08:00:31.737Z,106.88
2022-08-17T08:01:27.375Z,112.50
2022-08-17T08:02:33.885Z,112.50
2022-08-17T08:03:26.402Z,112.50
2022-08-17T08:04:49.905Z,101.25
2022-08-17T08:05:49.765Z,90.00
2022-08-17T08:06:27.303Z,84.38
2022-08-17T08:07:26.294Z,78.75
2022-08-17T08:08:26.283Z,73.12
2022-08-17T08:09:26.281Z,61.88
2022-08-17T08:10:26.260Z,50.62
2022-08-17T08:11:26.251Z,39.38
2022-08-17T08:12:32.689Z,39.38
2022-08-17T08:13:32.366Z,33.75
2022-08-17T08:14:28.258Z,33.75
2022-08-17T08:15:26.216Z,33.75
2022-08-17T08:16:26.194Z,39.38
2022-08-17T08:17:26.183Z,39.38
2022-08-17T08:18:53.706Z,39.38
2022-08-17T08:19:27.160Z,39.38
2022-08-17T08:20:51.106Z,45.00
2022-08-17T08:21:27.136Z,50.62
2022-08-17T08:22:26.129Z,56.25
2022-08-17T08:23:26.116Z,56.25
2022-08-17T08:24:31.237Z,61.88
2022-08-17T08:25:26.102Z,61.88
2022-08-17T08:26:26.084Z,61.88
2022-08-17T08:27:26.069Z,56.25
2022-08-17T08:28:26.071Z,56.25
2022-08-17T08:29:26.048Z,56.25
2022-08-17T08:30:26.052Z,56.25
2022-08-17T08:31:26.029Z,50.62
2022-08-17T08:32:26.016Z,50.62
2022-08-17T08:33:26.003Z,56.25
2022-08-17T08:34:53.467Z,56.25
2022-08-17T08:35:32.035Z,61.88
2022-08-17T08:37:14.187Z,67.50
2022-08-17T08:37:34.498Z,73.12
2022-08-17T08:38:26.947Z,73.12
2022-08-17T08:39:26.031Z,73.12
2022-08-17T08:40:25.938Z,73.12
2022-08-17T08:41:25.913Z,73.12
2022-08-17T08:42:25.911Z,78.75
2022-08-17T08:43:25.896Z,73.12
2022-08-17T08:45:00.244Z,73.12
2022-08-17T08:45:26.881Z,67.50
2022-08-17T08:46:30.884Z,61.88
2022-08-17T08:47:25.867Z,56.25
2022-08-17T08:48:53.391Z,56.25
2022-08-17T08:49:59.193Z,50.62
2022-08-17T08:50:36.877Z,50.62
2022-08-17T08:51:26.813Z,50.62
2022-08-17T08:52:25.796Z,56.25
2022-08-17T08:53:25.783Z,56.25
2022-08-17T08:54:26.555Z,61.88
2022-08-17T08:55:25.779Z,61.88
2022-08-17T08:56:25.758Z,67.50
2022-08-17T08:57:33.958Z,73.12
2022-08-17T08:58:31.467Z,78.75
2022-08-17T08:59:26.724Z,78.75
2022-08-17T09:00:25.730Z,78.75
2022-08-17T09:01:25.740Z,73.12
2022-08-17T09:02:25.683Z,73.12
2022-08-17T09:03:43.838Z,73.12
2022-08-17T09:04:26.661Z,78.75
2022-08-17T09:05:25.665Z,84.38
2022-08-17T09:06:37.793Z,90.00
2022-08-17T09:07:26.628Z,90.00
2022-08-17T09:08:30.639Z,90.00
2022-08-17T09:09:25.610Z,95.62
2022-08-17T09:10:25.594Z,95.62
2022-08-17T09:11:25.592Z,95.62
2022-08-17T09:12:25.572Z,90.00
2022-08-17T09:13:25.564Z,90.00
2022-08-17T09:14:28.742Z,90.00
2022-08-17T09:15:25.542Z,90.00
2022-08-17T09:16:25.537Z,95.62
2022-08-17T09:17:25.516Z,101.25
2022-08-17T09:19:02.256Z,106.88
2022-08-17T09:19:31.516Z,112.50
2022-08-17T09:20:28.067Z,118.12
2022-08-17T09:21:25.484Z,118.12
2022-08-17T09:22:25.464Z,123.75
2022-08-17T09:23:25.457Z,135.00
2022-08-17T09:24:25.439Z,140.62
2022-08-17T09:25:25.432Z,157.50
2022-08-17T09:26:25.440Z,180.00
2022-08-17T09:27:25.408Z,208.12
2022-08-17T09:28:25.395Z,213.75
2022-08-17T09:29:25.400Z,202.50
2022-08-17T09:30:30.400Z,185.62
2022-08-17T09:31:27.703Z,180.00
2022-08-17T09:32:25.351Z,174.38
2022-08-17T09:33:25.342Z,157.50
2022-08-17T09:34:32.075Z,135.00
2022-08-17T09:35:32.937Z,112.50
2022-08-17T09:36:26.321Z,95.62
2022-08-17T09:37:25.323Z,90.00
2022-08-17T09:38:28.109Z,95.62
2022-08-17T09:39:26.353Z,95.62
2022-08-17T09:40:25.269Z,101.25
2022-08-17T09:41:30.370Z,106.88
2022-08-17T09:42:25.244Z,112.50
2022-08-17T09:43:25.241Z,106.88
2022-08-17T09:44:25.224Z,106.88
2022-08-17T09:45:25.213Z,106.88
2022-08-17T09:46:25.211Z,112.50
2022-08-17T09:47:25.188Z,123.75
2022-08-17T09:48:25.177Z,135.00
2022-08-17T09:49:25.465Z,135.00
2022-08-17T09:51:03.184Z,140.62
2022-08-17T09:51:26.158Z,146.25
2022-08-17T09:52:30.155Z,157.50
2022-08-17T09:53:25.125Z,157.50
2022-08-17T09:54:38.635Z,146.25
2022-08-17T09:55:26.101Z,135.00
2022-08-17T09:56:25.097Z,118.12
2022-08-17T09:57:32.671Z,106.88
2022-08-17T09:58:29.068Z,101.25
2022-08-17T09:59:25.057Z,101.25
2022-08-17T10:00:25.062Z,101.25
2022-08-17T10:01:25.148Z,95.62
2022-08-17T10:02:25.023Z,90.00
2022-08-17T10:03:30.034Z,84.38
2022-08-17T10:04:29.465Z,84.38
2022-08-17T10:05:24.995Z,78.75
2022-08-17T10:06:24.986Z,61.88
2022-08-17T10:07:25.028Z,56.25
2022-08-17T10:08:24.955Z,50.62
2022-08-17T10:09:24.945Z,50.62
2022-08-17T10:10:24.935Z,56.25
2022-08-17T10:11:33.815Z,56.25
2022-08-17T10:12:30.191Z,61.88
2022-08-17T10:13:24.900Z,61.88
2022-08-17T10:14:36.455Z,61.88
2022-08-17T10:15:25.878Z,61.88
2022-08-17T10:16:24.875Z,67.50
2022-08-17T10:17:24.857Z,67.50
2022-08-17T10:18:24.900Z,73.12
2022-08-17T10:19:25.830Z,78.75
2022-08-17T10:20:24.818Z,78.75
2022-08-17T10:21:24.828Z,78.75
2022-08-17T10:22:34.850Z,78.75
2022-08-17T10:23:25.786Z,73.12
2022-08-17T10:24:24.774Z,73.12
2022-08-17T10:25:48.595Z,67.50
2022-08-17T10:26:25.760Z,61.88
2022-08-17T10:27:24.787Z,61.88
2022-08-17T10:28:29.568Z,56.25
2022-08-17T10:29:25.725Z,56.25
2022-08-17T10:30:24.710Z,56.25
2022-08-17T10:31:40.057Z,56.25
2022-08-17T10:32:25.682Z,56.25
2022-08-17T10:33:24.672Z,56.25
2022-08-17T10:34:24.679Z,56.25
2022-08-17T10:35:24.686Z,61.88
2022-08-17T10:36:29.673Z,61.88
2022-08-17T10:37:24.677Z,67.50
2022-08-17T10:38:24.856Z,67.50
2022-08-17T10:39:24.606Z,67.50
2022-08-17T10:40:24.713Z,78.75
2022-08-17T10:41:24.603Z,73.12
2022-08-17T10:42:30.834Z,73.12
2022-08-17T10:43:25.559Z,73.12
2022-08-17T10:44:40.233Z,67.50
2022-08-17T10:45:25.559Z,67.50
2022-08-17T10:46:30.324Z,67.50
2022-08-17T10:47:42.295Z,73.12
2022-08-17T10:48:25.507Z,73.12
2022-08-17T10:49:24.503Z,73.12
2022-08-17T10:50:24.482Z,78.75
2022-08-17T10:51:24.489Z,84.38
2022-08-17T10:52:25.045Z,84.38
2022-08-17T10:53:24.448Z,90.00
2022-08-17T10:54:24.449Z,95.62
2022-08-17T10:55:24.427Z,101.25
2022-08-17T10:56:24.416Z,101.25
2022-08-17T10:57:24.415Z,101.25
2022-08-17T10:58:29.419Z,101.25
2022-08-17T10:59:24.387Z,101.25
2022-08-17T11:00:27.621Z,106.88
2022-08-17T11:01:24.403Z,112.50
2022-08-17T11:02:24.360Z,123.75
2022-08-17T11:03:24.341Z,129.38
2022-08-17T11:04:25.071Z,135.00
2022-08-17T11:05:24.319Z,146.25
2022-08-17T11:06:24.303Z,157.50
2022-08-17T11:07:24.303Z,168.75
2022-08-17T11:08:24.307Z,180.00
2022-08-17T11:09:29.295Z,191.25
2022-08-17T11:10:24.271Z,196.88
2022-08-17T11:11:24.250Z,196.88
2022-08-17T11:12:24.253Z,213.75
2022-08-17T11:13:24.229Z,230.62
2022-08-17T11:14:24.212Z,225.00
2022-08-17T11:15:24.204Z,236.25
2022-08-17T11:16:24.194Z,253.12
2022-08-17T11:17:24.195Z,292.50
2022-08-17T11:18:24.212Z,348.75
2022-08-17T11:19:24.159Z,315.00
2022-08-17T11:20:29.194Z,292.50
2022-08-17T11:21:24.136Z,343.12
2022-08-17T11:22:24.139Z,410.62
2022-08-17T11:23:24.128Z,405.00
2022-08-17T11:24:24.117Z,410.62
2022-08-17T11:25:24.094Z,376.88
2022-08-17T11:26:24.079Z,365.62
2022-08-17T11:27:24.092Z,326.25
2022-08-17T11:28:24.058Z,309.38
2022-08-17T11:29:24.663Z,309.38
2022-08-17T11:30:24.037Z,315.00
2022-08-17T11:31:38.747Z,348.75
2022-08-17T11:32:25.022Z,365.62
2022-08-17T11:33:24.037Z,382.50
2022-08-17T11:34:23.991Z,360.00
2022-08-17T11:35:23.982Z,348.75
2022-08-17T11:36:23.973Z,343.12
2022-08-17T11:37:23.972Z,343.12
2022-08-17T11:38:23.951Z,382.50
2022-08-17T11:39:23.938Z,405.00
2022-08-17T11:40:23.925Z,405.00
2022-08-17T11:41:23.917Z,573.75
2022-08-17T11:42:28.934Z,399.38
2022-08-17T11:43:25.673Z,365.62
2022-08-17T11:44:23.880Z,399.38
2022-08-17T11:45:32.263Z,438.75
2022-08-17T11:46:24.861Z,455.62
2022-08-17T11:47:23.860Z,444.38
2022-08-17T11:48:28.334Z,376.88
2022-08-17T11:49:24.827Z,427.50
2022-08-17T11:50:27.679Z,337.50
2022-08-17T11:51:23.807Z,343.12
2022-08-17T11:52:23.809Z,331.88
2022-08-17T11:53:28.812Z,298.12
2022-08-17T11:54:33.329Z,270.00
2022-08-17T11:55:35.466Z,270.00
2022-08-17T11:56:24.768Z,270.00
2022-08-17T11:57:23.760Z,286.88
2022-08-17T11:58:23.731Z,275.62
2022-08-17T11:59:23.757Z,264.38
2022-08-17T12:00:23.711Z,309.38
2022-08-17T12:01:23.697Z,298.12
2022-08-17T12:02:23.686Z,337.50
2022-08-17T12:03:23.776Z,371.25
2022-08-17T12:04:28.799Z,343.12
2022-08-17T12:05:23.657Z,365.62
2022-08-17T12:06:23.647Z,461.25
2022-08-17T12:07:24.644Z,461.25
2022-08-17T12:08:23.622Z,348.75
2022-08-17T12:09:23.612Z,298.12
2022-08-17T12:10:23.600Z,258.75
2022-08-17T12:11:56.359Z,225.00
2022-08-17T12:12:24.587Z,219.38
2022-08-17T12:13:23.569Z,213.75
2022-08-17T12:14:45.075Z,202.50
2022-08-17T12:15:29.571Z,180.00
2022-08-17T12:16:23.535Z,180.00
2022-08-17T12:17:41.613Z,174.38
2022-08-17T12:18:24.518Z,185.62
2022-08-17T12:19:23.506Z,185.62
2022-08-17T12:20:23.497Z,191.25
2022-08-17T12:21:23.486Z,202.50
2022-08-17T12:22:23.480Z,202.50
2022-08-17T12:23:23.467Z,196.88
2022-08-17T12:24:23.449Z,180.00
2022-08-17T12:25:23.443Z,168.75
2022-08-17T12:26:28.451Z,151.88
2022-08-17T12:28:04.109Z,140.62
2022-08-17T12:28:24.406Z,135.00
2022-08-17T12:29:38.398Z,135.00
2022-08-17T12:30:24.384Z,129.38
2022-08-17T12:31:23.376Z,129.38
2022-08-17T12:32:23.363Z,123.75
2022-08-17T12:33:28.055Z,123.75
2022-08-17T12:34:24.339Z,112.50
2022-08-17T12:35:23.336Z,106.88
2022-08-17T12:36:23.318Z,106.88
2022-08-17T12:37:28.331Z,112.50
2022-08-17T12:38:32.447Z,112.50
2022-08-17T12:39:24.946Z,112.50
2022-08-17T12:40:23.277Z,112.50
2022-08-17T12:41:23.267Z,112.50
2022-08-17T12:42:23.253Z,106.88
2022-08-17T12:43:23.253Z,95.62
2022-08-17T12:44:23.236Z,90.00
2022-08-17T12:45:23.223Z,84.38
2022-08-17T12:46:23.209Z,84.38
2022-08-17T12:47:23.391Z,84.38
2022-08-17T12:48:28.225Z,84.38
2022-08-17T12:49:23.182Z,90.00
2022-08-17T12:50:29.679Z,95.62
2022-08-17T12:51:24.160Z,95.62
2022-08-17T12:52:23.142Z,90.00
2022-08-17T12:53:23.142Z,90.00
2022-08-17T12:54:23.138Z,95.62
2022-08-17T12:55:23.111Z,95.62
2022-08-17T12:56:23.104Z,101.25
2022-08-17T12:57:23.113Z,112.50
2022-08-17T12:58:23.095Z,123.75
2022-08-17T12:59:29.929Z,135.00
2022-08-17T13:00:23.062Z,151.88
2022-08-17T13:01:23.103Z,163.12
2022-08-17T13:02:23.050Z,180.00
2022-08-17T13:03:23.047Z,185.62
2022-08-17T13:04:23.011Z,191.25
2022-08-17T13:05:23.001Z,191.25
2022-08-17T13:06:22.993Z,191.25
2022-08-17T13:07:22.985Z,191.25
2022-08-17T13:08:22.994Z,191.25
2022-08-17T13:09:23.010Z,202.50
2022-08-17T13:10:32.875Z,225.00
2022-08-17T13:11:22.938Z,253.12
2022-08-17T13:12:22.924Z,286.88
2022-08-17T13:13:22.935Z,286.88
2022-08-17T13:14:22.906Z,286.88
2022-08-17T13:15:22.896Z,275.62
2022-08-17T13:16:22.881Z,281.25
2022-08-17T13:17:22.869Z,258.75
2022-08-17T13:18:22.865Z,253.12
2022-08-17T13:19:39.979Z,241.88
2022-08-17T13:20:23.834Z,225.00
2022-08-17T13:21:27.851Z,219.38
2022-08-17T13:22:22.818Z,230.62
2022-08-17T13:23:22.813Z,230.62
2022-08-17T13:24:22.803Z,241.88
2022-08-17T13:25:22.787Z,241.88
2022-08-17T13:26:22.771Z,241.88
2022-08-17T13:27:22.760Z,230.62
2022-08-17T13:28:35.631Z,225.00
2022-08-17T13:29:23.750Z,208.12
2022-08-17T13:30:22.748Z,191.25
2022-08-17T13:31:22.738Z,180.00
2022-08-17T13:32:27.728Z,163.12
2022-08-17T13:33:22.693Z,151.88
2022-08-17T13:34:23.890Z,163.12
2022-08-17T13:35:29.685Z,163.12
2022-08-17T13:36:26.388Z,163.12
2022-08-17T13:37:23.220Z,163.12
2022-08-17T13:38:22.640Z,151.88
2022-08-17T13:39:22.641Z,146.25
2022-08-17T13:40:22.623Z,146.25
2022-08-17T13:41:22.629Z,140.62
2022-08-17T13:42:22.631Z,140.62
2022-08-17T13:43:27.608Z,140.62
2022-08-17T13:44:22.596Z,135.00
2022-08-17T13:45:35.506Z,129.38
2022-08-17T13:46:23.555Z,118.12
2022-08-17T13:47:22.544Z,123.75
2022-08-17T13:48:22.533Z,123.75
2022-08-17T13:49:22.532Z,123.75
2022-08-17T13:50:22.513Z,123.75
2022-08-17T13:51:22.507Z,123.75
2022-08-17T13:52:25.635Z,129.38
2022-08-17T13:53:22.477Z,135.00
2022-08-17T13:54:27.508Z,135.00
2022-08-17T13:55:22.461Z,140.62
2022-08-17T13:56:38.830Z,140.62
2022-08-17T13:57:23.435Z,146.25
2022-08-17T13:58:22.424Z,146.25
2022-08-17T13:59:36.289Z,146.25
2022-08-17T14:00:23.413Z,135.00
2022-08-17T14:01:22.430Z,135.00
2022-08-17T14:02:22.382Z,135.00
2022-08-17T14:03:22.400Z,129.38
2022-08-17T14:04:22.364Z,135.00
2022-08-17T14:05:27.421Z,129.38
2022-08-17T14:06:52.448Z,135.00
2022-08-17T14:07:23.326Z,129.38
2022-08-17T14:08:22.323Z,129.38
2022-08-17T14:09:22.317Z,129.38
2022-08-17T14:10:22.309Z,129.38
2022-08-17T14:11:22.292Z,123.75
2022-08-17T14:12:22.275Z,129.38
2022-08-17T14:13:22.265Z,118.12
2022-08-17T14:14:22.253Z,118.12
2022-08-17T14:15:22.251Z,112.50
2022-08-17T14:16:27.255Z,123.75
2022-08-17T14:17:22.219Z,129.38
2022-08-17T14:18:31.204Z,146.25
2022-08-17T14:19:23.198Z,151.88
2022-08-17T14:20:22.201Z,168.75
2022-08-17T14:21:22.178Z,157.50
2022-08-17T14:22:22.167Z,146.25
2022-08-17T14:23:22.155Z,135.00
2022-08-17T14:24:22.146Z,135.00
2022-08-17T14:25:22.403Z,129.38
2022-08-17T14:26:22.124Z,118.12
2022-08-17T14:27:27.136Z,118.12
2022-08-17T14:28:22.102Z,106.88
2022-08-17T14:29:22.092Z,106.88
2022-08-17T14:30:22.092Z,106.88
2022-08-17T14:31:22.082Z,118.12
2022-08-17T14:32:22.070Z,123.75
2022-08-17T14:33:22.049Z,135.00
2022-08-17T14:34:22.040Z,140.62
2022-08-17T14:35:22.035Z,135.00
2022-08-17T14:36:22.021Z,123.75
2022-08-17T14:37:22.006Z,106.88
2022-08-17T14:38:27.017Z,101.25
2022-08-17T14:39:21.990Z,95.62
2022-08-17T14:40:22.028Z,84.38
2022-08-17T14:41:22.454Z,90.00
2022-08-17T14:42:21.951Z,90.00
2022-08-17T14:43:21.936Z,95.62
2022-08-17T14:44:21.939Z,95.62
2022-08-17T14:45:29.830Z,95.62
2022-08-17T14:46:22.904Z,84.38
2022-08-17T14:47:21.892Z,84.38
2022-08-17T14:48:21.888Z,78.75
2022-08-17T14:49:26.906Z,90.00
2022-08-17T14:50:21.863Z,101.25
2022-08-17T14:51:21.849Z,95.62
2022-08-17T14:52:22.030Z,101.25
2022-08-17T14:53:21.828Z,95.62
2022-08-17T14:54:33.041Z,90.00
2022-08-17T14:55:22.817Z,84.38
2022-08-17T14:56:21.797Z,90.00
2022-08-17T14:57:33.013Z,95.62
2022-08-17T14:58:22.771Z,95.62
2022-08-17T14:59:21.761Z,95.62
2022-08-17T15:00:26.786Z,95.62
2022-08-17T15:01:21.801Z,95.62
2022-08-17T15:02:21.733Z,90.00
2022-08-17T15:03:22.732Z,90.00
2022-08-17T15:04:21.705Z,90.00
2022-08-17T15:05:21.703Z,95.62
2022-08-17T15:06:21.685Z,101.25
2022-08-17T15:07:21.671Z,106.88
2022-08-17T15:08:22.694Z,101.25
2022-08-17T15:09:21.661Z,101.25
2022-08-17T15:10:21.655Z,101.25
2022-08-17T15:11:26.648Z,101.25
2022-08-17T15:12:21.618Z,101.25
2022-08-17T15:13:21.609Z,101.25
2022-08-17T15:14:21.596Z,95.62
2022-08-17T15:15:21.603Z,95.62
2022-08-17T15:16:21.609Z,95.62
2022-08-17T15:17:21.560Z,101.25
2022-08-17T15:18:21.554Z,101.25
2022-08-17T15:19:21.538Z,95.62
2022-08-17T15:20:21.538Z,95.62
2022-08-17T15:21:21.518Z,95.62
2022-08-17T15:22:26.534Z,90.00
2022-08-17T15:23:21.496Z,95.62
2022-08-17T15:24:21.485Z,90.00
2022-08-17T15:25:21.487Z,90.00
2022-08-17T15:26:26.009Z,90.00
2022-08-17T15:27:25.787Z,90.00
2022-08-17T15:28:22.442Z,90.00
2022-08-17T15:29:21.434Z,90.00
2022-08-17T15:30:21.434Z,84.38
2022-08-17T15:31:31.969Z,90.00
2022-08-17T15:32:22.397Z,84.38
2022-08-17T15:33:26.407Z,90.00
2022-08-17T15:34:21.376Z,90.00
2022-08-17T15:35:25.164Z,90.00
2022-08-17T15:36:22.376Z,90.00
2022-08-17T15:37:21.410Z,95.62
2022-08-17T15:38:21.333Z,95.62
2022-08-17T15:39:21.320Z,95.62
2022-08-17T15:40:21.323Z,95.62
2022-08-17T15:41:21.299Z,95.62
2022-08-17T15:42:21.289Z,95.62
2022-08-17T15:43:26.672Z,90.00
2022-08-17T15:44:32.405Z,90.00
2022-08-17T15:45:22.378Z,90.00
2022-08-17T15:46:21.244Z,90.00
2022-08-17T15:47:21.232Z,90.00
2022-08-17T15:48:21.234Z,90.00
2022-08-17T15:49:21.211Z,90.00
2022-08-17T15:50:21.213Z,90.00
2022-08-17T15:51:21.188Z,95.62
2022-08-17T15:52:21.183Z,95.62
2022-08-17T15:53:21.168Z,101.25
2022-08-17T15:54:22.779Z,101.25
2022-08-17T15:55:26.180Z,95.62
2022-08-17T15:56:21.134Z,95.62
2022-08-17T15:57:21.122Z,90.00
2022-08-17T15:58:21.114Z,90.00
2022-08-17T15:59:22.098Z,90.00
2022-08-17T16:00:21.110Z,90.00
2022-08-17T16:01:45.449Z,84.38
2022-08-17T16:03:13.486Z,84.38
2022-08-17T16:04:01.452Z,78.75
2022-08-17T16:04:30.383Z,73.12
2022-08-17T16:05:24.240Z,78.75
2022-08-17T16:06:26.048Z,73.12
2022-08-17T16:07:26.411Z,78.75
2022-08-17T16:08:22.003Z,78.75
2022-08-17T16:09:21.051Z,78.75
2022-08-17T16:10:21.114Z,78.75
2022-08-17T16:11:20.974Z,78.75
2022-08-17T16:12:20.977Z,78.75
2022-08-17T16:13:20.955Z,73.12
2022-08-17T16:14:20.944Z,73.12
2022-08-17T16:15:20.940Z,73.12
2022-08-17T16:16:20.932Z,67.50
2022-08-17T16:17:49.380Z,67.50
2022-08-17T16:18:22.072Z,67.50
2022-08-17T16:19:20.885Z,67.50
2022-08-17T16:20:21.139Z,61.88
2022-08-17T16:21:20.861Z,67.50
2022-08-17T16:22:20.858Z,67.50
2022-08-17T16:23:20.841Z,67.50
2022-08-17T16:24:20.830Z,67.50
2022-08-17T16:25:20.994Z,67.50
2022-08-17T16:26:20.807Z,67.50
2022-08-17T16:27:20.798Z,67.50
2022-08-17T16:28:35.592Z,61.88
2022-08-17T16:29:21.772Z,61.88
2022-08-17T16:30:20.776Z,61.88
2022-08-17T16:31:20.757Z,56.25
2022-08-17T16:32:20.748Z,56.25
2022-08-17T16:33:21.742Z,56.25
2022-08-17T16:34:20.732Z,56.25
2022-08-17T16:35:20.925Z,56.25
2022-08-17T16:36:20.698Z,56.25
2022-08-17T16:37:20.686Z,56.25
2022-08-17T16:38:20.677Z,61.88
2022-08-17T16:39:25.711Z,61.88
2022-08-17T16:40:20.665Z,61.88
2022-08-17T16:41:20.645Z,61.88
2022-08-17T16:42:20.645Z,56.25
2022-08-17T16:43:20.621Z,56.25
2022-08-17T16:44:20.614Z,56.25
2022-08-17T16:45:20.610Z,56.25